Time;durP1;ratioP1;P1;durP2;ratioP2;P2;SDS_P1;SDS_P2;PMS_P1;PMS_P2;Temp;Humidity;BMP_temperature;BMP_pressure;BME280_temperature;BME280_humidity;BME280_pressure;Samples;Min_cycle;Max_cycle;Signal;HPM_P1;HPM_P2
2023/06/18 00:00:42;;;;;;;10.30;7.70;;;;;19.40;98385.00;;;;5073169;28;20478;-61
2023/06/18 00:03:08;;;;;;;10.27;8.25;;;;;19.40;98392.00;;;;5073387;28;20044;-61
2023/06/18 00:05:35;;;;;;;11.43;8.43;;;;;19.50;98381.00;;;;5073370;28;20070;-61
2023/06/18 00:08:02;;;;;;;11.77;8.70;;;;;19.40;98388.00;;;;5073047;28;20045;-60
2023/06/18 00:10:28;;;;;;;9.40;8.02;;;;;19.20;98385.00;;;;5071543;28;20139;-61
2023/06/18 00:12:55;;;;;;;9.27;8.38;;;;;19.00;98380.00;;;;5073876;28;20055;-61
2023/06/18 00:15:22;;;;;;;10.13;8.50;;;;;19.00;98379.00;;;;5074110;28;20457;-61
2023/06/18 00:17:48;;;;;;;10.63;8.43;;;;;18.80;98375.00;;;;5072691;28;20050;-61
2023/06/18 00:20:15;;;;;;;12.32;9.05;;;;;18.80;98372.00;;;;5073188;28;20072;-61
2023/06/18 00:22:41;;;;;;;13.93;8.45;;;;;18.80;98378.00;;;;5072180;28;20725;-60
2023/06/18 00:25:08;;;;;;;10.20;9.20;;;;;18.80;98365.00;;;;5055145;28;20049;-61
2023/06/18 00:27:35;;;;;;;10.00;8.52;;;;;18.80;98370.00;;;;5072848;28;20501;-61
2023/06/18 00:30:04;;;;;;;9.48;8.43;;;;;18.80;98367.00;;;;5054761;28;20044;-61
2023/06/18 00:32:33;;;;;;;10.15;8.75;;;;;18.80;98373.00;;;;5055105;28;20501;-61
2023/06/18 00:35:00;;;;;;;12.25;8.27;;;;;18.70;98373.00;;;;5054975;28;20132;-62
2023/06/18 00:37:28;;;;;;;9.63;7.90;;;;;18.70;98367.00;;;;5071373;28;20083;-61
2023/06/18 00:39:55;;;;;;;8.68;7.78;;;;;18.70;98353.00;;;;5071759;28;20454;-61
2023/06/18 00:42:21;;;;;;;8.90;8.00;;;;;18.60;98357.00;;;;5072477;28;20048;-63
2023/06/18 00:44:48;;;;;;;9.57;8.40;;;;;18.60;98358.00;;;;5072421;28;20075;-61
2023/06/18 00:47:17;;;;;;;13.88;9.20;;;;;18.50;98364.00;;;;5071153;28;20045;-61
2023/06/18 00:49:45;;;;;;;13.40;9.30;;;;;18.40;98349.00;;;;5071020;28;20136;-62
2023/06/18 00:52:12;;;;;;;12.82;9.35;;;;;18.30;98350.00;;;;5072578;28;20524;-61
2023/06/18 00:54:44;;;;;;;9.38;8.48;;;;;18.30;98349.00;;;;5072454;28;20048;-61
2023/06/18 00:57:15;;;;;;;10.05;8.40;;;;;18.30;98352.00;;;;5072230;28;20502;-62
2023/06/18 00:59:42;;;;;;;12.00;8.60;;;;;18.20;98345.00;;;;5070767;28;20548;-62
2023/06/18 01:02:09;;;;;;;9.93;8.93;;;;;18.10;98344.00;;;;5071099;28;20521;-62
2023/06/18 01:04:38;;;;;;;11.30;8.63;;;;;18.20;98351.00;;;;5054626;28;20060;-62
2023/06/18 01:07:12;;;;;;;10.57;8.32;;;;;18.00;98351.00;;;;5072387;28;20578;-61
2023/06/18 01:09:41;;;;;;;9.68;8.60;;;;;18.00;98343.00;;;;5072504;28;20447;-61
2023/06/18 01:12:08;;;;;;;10.30;8.90;;;;;18.10;98348.00;;;;5072201;28;20497;-61
2023/06/18 01:14:37;;;;;;;9.77;8.88;;;;;18.10;98352.00;;;;5072210;28;20461;-61
2023/06/18 01:17:06;;;;;;;9.90;7.95;;;;;18.10;98352.00;;;;5070660;28;20406;-61
2023/06/18 01:20:00;;;;;;;8.95;7.97;;;;;18.10;98346.00;;;;5070651;28;20048;-62
2023/06/18 01:22:57;;;;;;;9.38;8.10;;;;;18.10;98349.00;;;;5072147;28;20397;-62
2023/06/18 01:25:26;;;;;;;10.10;8.70;;;;;18.20;98346.00;;;;5070814;28;20051;-62
2023/06/18 01:27:53;;;;;;;11.60;8.40;;;;;18.20;98348.00;;;;5071069;28;20048;-62
2023/06/18 01:30:21;;;;;;;9.65;7.53;;;;;18.10;98340.00;;;;5070639;28;20547;-62
2023/06/18 01:32:48;;;;;;;12.40;8.50;;;;;18.00;98337.00;;;;5070854;28;20048;-62
2023/06/18 01:35:15;;;;;;;9.70;8.52;;;;;18.00;98345.00;;;;5072389;28;20378;-62
2023/06/18 01:38:12;;;;;;;9.85;8.85;;;;;18.00;98344.00;;;;5070582;28;20484;-62
2023/06/18 01:40:46;;;;;;;10.35;9.25;;;;;17.90;98354.00;;;;5071958;28;20425;-62
2023/06/18 01:43:22;;;;;;;9.98;8.60;;;;;17.90;98357.00;;;;5072000;28;20517;-62
2023/06/18 01:46:04;;;;;;;10.80;8.23;;;;;18.00;98356.00;;;;5071949;28;20532;-62
2023/06/18 01:48:42;;;;;;;11.23;8.50;;;;;17.90;98351.00;;;;5070660;28;20044;-61
2023/06/18 01:51:11;;;;;;;12.48;8.60;;;;;17.80;98348.00;;;;5070167;28;20083;-62
2023/06/18 01:53:40;;;;;;;13.25;9.23;;;;;17.70;98340.00;;;;5074780;28;20044;-62
2023/06/18 01:56:09;;;;;;;10.38;9.02;;;;;17.50;98336.00;;;;5075945;28;20105;-62
2023/06/18 01:58:41;;;;;;;13.15;9.23;;;;;17.50;98333.00;;;;5058119;28;20390;-62
2023/06/18 02:01:11;;;;;;;13.85;8.88;;;;;17.30;98335.00;;;;5074380;28;20045;-62
2023/06/18 02:03:39;;;;;;;11.63;8.82;;;;;17.30;98333.00;;;;5075841;28;20032;-62
2023/06/18 02:06:07;;;;;;;9.13;8.23;;;;;17.30;98341.00;;;;5076052;28;20052;-62
2023/06/18 02:08:34;;;;;;;10.10;9.10;;;;;17.30;98333.00;;;;5075583;28;20139;-62
2023/06/18 02:11:02;;;;;;;11.73;9.85;;;;;17.30;98319.00;;;;5075770;28;20404;-62
2023/06/18 02:13:28;;;;;;;11.18;9.48;;;;;17.30;98317.00;;;;5074751;28;20044;-62
2023/06/18 02:15:55;;;;;;;9.98;8.65;;;;;17.30;98320.00;;;;5075329;28;20469;-62
2023/06/18 02:18:22;;;;;;;10.18;8.50;;;;;17.20;98308.00;;;;5074265;28;20071;-62
2023/06/18 02:20:50;;;;;;;9.90;8.05;;;;;17.00;98321.00;;;;5075523;28;20060;-62
2023/06/18 02:23:17;;;;;;;8.50;7.60;;;;;16.90;98319.00;;;;5075213;28;20451;-62
2023/06/18 02:25:44;;;;;;;9.25;8.20;;;;;16.90;98320.00;;;;5074551;28;20436;-62
2023/06/18 02:28:11;;;;;;;9.25;8.18;;;;;17.00;98322.00;;;;5075703;28;20512;-62
2023/06/18 02:30:38;;;;;;;9.48;7.55;;;;;17.10;98329.00;;;;5074638;28;20382;-64
2023/06/18 02:33:10;;;;;;;9.68;8.38;;;;;17.00;98329.00;;;;5074370;28;20140;-62
2023/06/18 02:35:38;;;;;;;9.63;8.30;;;;;17.00;98334.00;;;;5075349;28;20409;-62
2023/06/18 02:38:05;;;;;;;10.13;8.00;;;;;16.90;98337.00;;;;5074091;28;20145;-62
2023/06/18 02:40:31;;;;;;;10.07;8.02;;;;;16.90;98328.00;;;;5074634;28;20048;-62
2023/06/18 02:42:58;;;;;;;10.07;7.93;;;;;17.00;98335.00;;;;5079564;28;20051;-62
2023/06/18 02:45:28;;;;;;;9.93;8.20;;;;;16.90;98332.00;;;;5090041;28;20052;-61
2023/06/18 02:47:55;;;;;;;10.32;9.23;;;;;16.80;98333.00;;;;5086636;28;20123;-62
2023/06/18 02:50:22;;;;;;;10.00;9.00;;;;;16.70;98335.00;;;;5062517;28;20098;-60
2023/06/18 02:52:49;;;;;;;9.88;8.88;;;;;16.70;98336.00;;;;5076541;28;20040;-61
2023/06/18 02:55:16;;;;;;;10.48;8.60;;;;;16.60;98332.00;;;;5074296;28;20044;-62
2023/06/18 02:57:45;;;;;;;10.70;8.88;;;;;16.60;98331.00;;;;5073975;28;20444;-62
2023/06/18 03:00:13;;;;;;;9.00;8.10;;;;;16.70;98332.00;;;;5075536;28;20443;-62
2023/06/18 03:02:43;;;;;;;10.15;8.27;;;;;16.80;98332.00;;;;5058510;28;20405;-62
2023/06/18 03:05:21;;;;;;;9.70;8.13;;;;;16.80;98328.00;;;;5074739;28;20521;-63
2023/06/18 03:07:49;;;;;;;10.43;8.65;;;;;16.80;98328.00;;;;5075758;28;20043;-61
2023/06/18 03:10:15;;;;;;;12.60;9.40;;;;;16.70;98325.00;;;;5074368;28;20459;-62
2023/06/18 03:12:45;;;;;;;9.40;8.50;;;;;16.60;98327.00;;;;5074522;28;20052;-62
2023/06/18 03:15:23;;;;;;;11.18;9.23;;;;;16.60;98333.00;;;;5075367;28;20049;-61
2023/06/18 03:17:50;;;;;;;9.27;7.90;;;;;16.70;98329.00;;;;5074623;28;20448;-61
2023/06/18 03:20:18;;;;;;;10.27;8.82;;;;;16.80;98326.00;;;;5074441;28;20538;-60
2023/06/18 03:22:50;;;;;;;11.02;9.38;;;;;16.90;98332.00;;;;5059513;28;20070;-61
2023/06/18 03:25:17;;;;;;;11.65;9.57;;;;;17.00;98332.00;;;;5074169;28;20048;-61
2023/06/18 03:27:43;;;;;;;11.50;9.45;;;;;17.20;98329.00;;;;5074787;28;20098;-61
2023/06/18 03:30:12;;;;;;;11.23;8.80;;;;;17.20;98333.00;;;;5074385;28;20036;-61
2023/06/18 03:32:38;;;;;;;9.98;8.25;;;;;17.00;98335.00;;;;5076312;28;20123;-61
2023/06/18 03:35:06;;;;;;;10.60;9.50;;;;;16.80;98335.00;;;;5075865;28;20044;-61
2023/06/18 03:37:33;;;;;;;13.70;9.27;;;;;16.80;98335.00;;;;5073605;28;20043;-61
2023/06/18 03:40:03;;;;;;;13.40;9.35;;;;;16.90;98330.00;;;;5056981;28;20045;-61
2023/06/18 03:42:29;;;;;;;10.02;8.55;;;;;16.80;98333.00;;;;5058393;28;20049;-61
2023/06/18 03:44:56;;;;;;;9.70;8.70;;;;;16.80;98331.00;;;;5077104;28;20459;-61
2023/06/18 03:47:23;;;;;;;9.93;8.95;;;;;16.70;98329.00;;;;5058975;28;20044;-61
2023/06/18 03:49:49;;;;;;;10.63;9.05;;;;;16.60;98329.00;;;;5074892;28;20048;-62
2023/06/18 03:52:16;;;;;;;10.88;9.38;;;;;16.50;98325.00;;;;5074897;28;20055;-61
2023/06/18 03:54:43;;;;;;;11.07;9.98;;;;;16.50;98324.00;;;;5075615;28;20409;-61
2023/06/18 03:57:12;;;;;;;10.77;9.57;;;;;16.60;98321.00;;;;5075303;28;20082;-60
2023/06/18 03:59:39;;;;;;;9.80;8.80;;;;;16.80;98320.00;;;;5075204;28;20044;-60
2023/06/18 04:02:07;;;;;;;9.23;8.23;;;;;16.90;98325.00;;;;5075254;28;20074;-60
2023/06/18 04:04:34;;;;;;;10.50;8.82;;;;;16.90;98320.00;;;;5075391;28;20543;-61
2023/06/18 04:07:01;;;;;;;10.02;8.68;;;;;17.00;98322.00;;;;5075117;28;20056;-61
2023/06/18 04:09:28;;;;;;;9.60;8.60;;;;;17.00;98323.00;;;;5075971;28;20052;-63
2023/06/18 04:11:54;;;;;;;10.05;8.95;;;;;17.10;98322.00;;;;5076619;28;20076;-61
2023/06/18 04:14:21;;;;;;;11.40;9.25;;;;;17.20;98334.00;;;;5075682;28;20106;-61
2023/06/18 04:16:48;;;;;;;12.38;9.02;;;;;17.30;98329.00;;;;5074965;28;20135;-62
2023/06/18 04:19:15;;;;;;;11.00;9.00;;;;;17.40;98329.00;;;;5075100;28;20483;-61
2023/06/18 04:21:41;;;;;;;9.80;8.57;;;;;17.30;98330.00;;;;5074940;28;20051;-62
2023/06/18 04:24:08;;;;;;;9.88;8.80;;;;;17.30;98321.00;;;;5076124;28;20125;-61
2023/06/18 04:26:35;;;;;;;10.55;9.48;;;;;17.50;98325.00;;;;5077016;28;20048;-62
2023/06/18 04:29:01;;;;;;;9.73;8.80;;;;;17.60;98332.00;;;;5076718;28;20041;-61
2023/06/18 04:31:28;;;;;;;10.05;9.05;;;;;17.70;98323.00;;;;5076543;28;20492;-62
2023/06/18 04:33:55;;;;;;;10.23;8.88;;;;;17.80;98323.00;;;;5076578;28;20049;-62
2023/06/18 04:36:24;;;;;;;10.25;9.15;;;;;17.80;98327.00;;;;5076175;28;20044;-62
2023/06/18 04:38:51;;;;;;;9.57;8.68;;;;;17.90;98321.00;;;;5075755;28;20045;-61
2023/06/18 04:41:19;;;;;;;10.20;9.05;;;;;17.90;98321.00;;;;5075709;28;20192;-62
2023/06/18 04:43:47;;;;;;;11.02;8.68;;;;;18.00;98314.00;;;;5075310;28;20076;-62
2023/06/18 04:46:14;;;;;;;9.52;8.52;;;;;18.00;98321.00;;;;5059834;28;20077;-62
2023/06/18 04:48:42;;;;;;;10.57;8.50;;;;;18.10;98324.00;;;;5076362;28;20048;-62
2023/06/18 04:51:09;;;;;;;10.55;9.38;;;;;18.20;98320.00;;;;5077487;28;20048;-61
2023/06/18 04:53:38;;;;;;;9.77;8.27;;;;;18.30;98326.00;;;;5075319;28;20497;-62
2023/06/18 04:56:06;;;;;;;11.88;9.40;;;;;18.30;98328.00;;;;5075356;28;20049;-61
2023/06/18 04:58:40;;;;;;;11.48;9.73;;;;;18.30;98331.00;;;;5075978;28;20066;-61
2023/06/18 05:01:08;;;;;;;9.52;8.07;;;;;18.30;98325.00;;;;5075910;28;20071;-61
2023/06/18 05:03:35;;;;;;;10.07;9.07;;;;;18.30;98318.00;;;;5075638;28;20056;-61
2023/06/18 05:06:02;;;;;;;11.52;9.00;;;;;18.30;98325.00;;;;5076780;28;20062;-61
2023/06/18 05:08:30;;;;;;;9.73;8.77;;;;;18.30;98324.00;;;;5074482;28;20411;-61
2023/06/18 05:10:57;;;;;;;14.15;9.10;;;;;18.40;98320.00;;;;5074028;28;20064;-61
2023/06/18 05:13:25;;;;;;;13.15;11.45;;;;;18.50;98322.00;;;;5058515;28;20121;-61
2023/06/18 05:15:53;;;;;;;15.13;12.93;;;;;18.70;98331.00;;;;5074533;28;20063;-61
2023/06/18 05:18:20;;;;;;;12.63;9.13;;;;;18.80;98331.00;;;;5075179;28;20040;-61
2023/06/18 05:20:47;;;;;;;10.90;9.77;;;;;18.90;98326.00;;;;5075937;28;20125;-62
2023/06/18 05:23:15;;;;;;;12.43;9.68;;;;;19.00;98335.00;;;;5074343;28;20057;-62
2023/06/18 05:25:42;;;;;;;9.93;8.90;;;;;19.00;98329.00;;;;5075056;28;20055;-61
2023/06/18 05:28:08;;;;;;;9.80;8.70;;;;;19.00;98333.00;;;;5058355;28;20044;-62
2023/06/18 05:30:38;;;;;;;12.35;10.55;;;;;19.10;98335.00;;;;5075955;28;20139;-62
2023/06/18 05:33:05;;;;;;;12.48;10.80;;;;;19.20;98331.00;;;;5075586;28;20044;-62
2023/06/18 05:35:32;;;;;;;14.07;12.65;;;;;19.40;98335.00;;;;5075893;28;20049;-61
2023/06/18 05:37:58;;;;;;;10.27;9.13;;;;;19.60;98331.00;;;;5075765;28;20490;-62
2023/06/18 05:40:25;;;;;;;9.23;8.18;;;;;19.50;98332.00;;;;5075273;28;20051;-62
2023/06/18 05:42:55;;;;;;;8.95;7.85;;;;;19.30;98332.00;;;;5075705;28;20114;-61
2023/06/18 05:45:22;;;;;;;9.70;8.73;;;;;19.30;98333.00;;;;5075327;28;20098;-61
2023/06/18 05:47:49;;;;;;;11.27;8.40;;;;;19.50;98331.00;;;;5059405;28;20114;-61
2023/06/18 05:50:24;;;;;;;9.05;8.15;;;;;19.60;98347.00;;;;5074938;28;20071;-62
2023/06/18 05:52:51;;;;;;;9.60;8.25;;;;;19.70;98340.00;;;;5074118;28;20114;-62
2023/06/18 05:55:18;;;;;;;9.45;8.00;;;;;19.70;98341.00;;;;5058370;28;20048;-62
2023/06/18 05:57:46;;;;;;;10.18;8.57;;;;;19.70;98343.00;;;;5076094;28;20047;-61
2023/06/18 06:00:13;;;;;;;10.10;8.30;;;;;19.80;98339.00;;;;5075318;28;20074;-62
2023/06/18 06:02:41;;;;;;;10.23;8.77;;;;;20.00;98343.00;;;;5076285;28;20056;-61
2023/06/18 06:05:16;;;;;;;9.30;8.30;;;;;20.10;98338.00;;;;5076296;28;20044;-62
2023/06/18 06:07:42;;;;;;;10.32;9.00;;;;;20.20;98344.00;;;;5058493;28;20490;-61
2023/06/18 06:10:16;;;;;;;10.15;9.05;;;;;20.20;98348.00;;;;5075079;28;20044;-62
2023/06/18 06:12:43;;;;;;;10.13;8.13;;;;;20.20;98344.00;;;;5076586;28;20135;-62
2023/06/18 06:15:10;;;;;;;9.68;8.68;;;;;20.30;98349.00;;;;5076006;28;20098;-60
2023/06/18 06:17:37;;;;;;;9.70;8.70;;;;;20.30;98353.00;;;;5059140;28;20098;-60
2023/06/18 06:20:05;;;;;;;9.02;8.10;;;;;20.40;98346.00;;;;5076548;28;20067;-62
2023/06/18 06:22:32;;;;;;;15.35;8.82;;;;;20.50;98343.00;;;;5060428;28;20080;-62
2023/06/18 06:24:58;;;;;;;11.00;8.18;;;;;20.60;98344.00;;;;5076839;28;20051;-62
2023/06/18 06:27:25;;;;;;;10.07;8.93;;;;;20.60;98350.00;;;;5059293;28;20045;-61
2023/06/18 06:29:51;;;;;;;10.00;9.00;;;;;20.70;98345.00;;;;5076940;28;20497;-61
2023/06/18 06:32:18;;;;;;;11.60;9.45;;;;;20.80;98343.00;;;;5077265;28;20498;-62
2023/06/18 06:34:45;;;;;;;32.30;14.32;;;;;20.90;98353.00;;;;5076661;28;20048;-61
2023/06/18 06:37:11;;;;;;;14.65;10.30;;;;;21.10;98352.00;;;;5076012;28;20135;-61
2023/06/18 06:39:38;;;;;;;26.95;13.43;;;;;21.20;98350.00;;;;5079682;28;20135;-62
2023/06/18 06:42:06;;;;;;;13.68;10.40;;;;;21.30;98354.00;;;;5063263;28;20173;-61
2023/06/18 06:44:33;;;;;;;10.77;9.13;;;;;21.40;98351.00;;;;5079980;28;20048;-62
2023/06/18 06:47:23;;;;;;;11.48;9.73;;;;;21.70;98355.00;;;;5079841;28;20486;-62
2023/06/18 06:50:09;;;;;;;12.45;9.70;;;;;21.80;98354.00;;;;5079584;28;20563;-63
2023/06/18 06:52:49;;;;;;;15.95;11.40;;;;;21.90;98363.00;;;;5081247;28;20044;-61
2023/06/18 06:55:17;;;;;;;9.32;8.32;;;;;22.00;98366.00;;;;5081163;28;20052;-62
2023/06/18 06:57:44;;;;;;;10.40;8.48;;;;;22.20;98367.00;;;;5080549;28;20052;-62
2023/06/18 07:00:11;;;;;;;9.48;8.50;;;;;22.30;98368.00;;;;5081145;28;20071;-61
2023/06/18 07:02:38;;;;;;;8.98;8.00;;;;;22.50;98364.00;;;;5079475;28;20074;-61
2023/06/18 07:05:07;;;;;;;10.82;8.60;;;;;22.60;98364.00;;;;5079509;28;20052;-63
2023/06/18 07:07:33;;;;;;;10.13;8.75;;;;;22.70;98367.00;;;;5076076;28;20044;-61
2023/06/18 07:10:00;;;;;;;9.80;8.75;;;;;22.80;98370.00;;;;5074552;28;20040;-61
2023/06/18 07:12:27;;;;;;;9.80;8.63;;;;;22.90;98370.00;;;;5073609;28;20059;-62
2023/06/18 07:14:53;;;;;;;10.07;9.10;;;;;22.90;98369.00;;;;5074449;28;20046;-62
2023/06/18 07:17:20;;;;;;;17.20;14.35;;;;;23.00;98367.00;;;;5072938;28;20501;-61
2023/06/18 07:19:47;;;;;;;15.80;12.15;;;;;23.10;98362.00;;;;5073313;28;20041;-62
2023/06/18 07:22:13;;;;;;;10.73;8.50;;;;;23.20;98373.00;;;;5073322;28;20040;-65
2023/06/18 07:24:40;;;;;;;9.55;7.85;;;;;23.30;98366.00;;;;5074555;28;20041;-65
2023/06/18 07:27:07;;;;;;;10.88;8.98;;;;;23.40;98366.00;;;;5073092;28;20077;-65
2023/06/18 07:29:33;;;;;;;12.93;9.90;;;;;23.60;98363.00;;;;5072981;28;20472;-65
2023/06/18 07:32:00;;;;;;;11.55;9.60;;;;;23.70;98371.00;;;;5074346;28;20037;-65
2023/06/18 07:34:26;;;;;;;10.93;8.38;;;;;23.80;98359.00;;;;5072820;28;20037;-65
2023/06/18 07:36:53;;;;;;;9.57;8.27;;;;;23.90;98366.00;;;;5073573;28;20041;-66
2023/06/18 07:39:20;;;;;;;11.75;8.85;;;;;24.00;98355.00;;;;5074012;28;20068;-65
2023/06/18 07:41:49;;;;;;;9.02;8.23;;;;;24.10;98353.00;;;;5073822;28;20053;-65
2023/06/18 07:44:16;;;;;;;10.27;8.70;;;;;24.30;98354.00;;;;5073720;28;20513;-65
2023/06/18 07:46:43;;;;;;;9.02;7.93;;;;;24.30;98356.00;;;;5073717;28;20129;-64
2023/06/18 07:49:10;;;;;;;8.32;7.45;;;;;24.50;98347.00;;;;5072587;28;20040;-64
2023/06/18 07:51:37;;;;;;;9.07;8.18;;;;;24.70;98351.00;;;;5055753;28;20040;-64
2023/06/18 07:54:04;;;;;;;9.40;8.02;;;;;24.70;98350.00;;;;5073890;28;20069;-65
2023/06/18 07:56:30;;;;;;;8.27;7.13;;;;;24.90;98343.00;;;;5073590;28;20401;-65
2023/06/18 07:58:57;;;;;;;7.75;6.95;;;;;25.00;98355.00;;;;5073638;28;20627;-64
2023/06/18 08:01:24;;;;;;;7.80;7.10;;;;;25.20;98344.00;;;;5073554;28;20051;-66
2023/06/18 08:03:50;;;;;;;9.30;7.57;;;;;25.50;98356.00;;;;5073886;28;20071;-63
2023/06/18 08:06:17;;;;;;;9.27;8.38;;;;;25.70;98358.00;;;;5055846;28;20106;-63
2023/06/18 08:08:46;;;;;;;11.57;8.15;;;;;25.90;98359.00;;;;5072399;28;20087;-63
2023/06/18 08:11:13;;;;;;;8.38;7.47;;;;;26.00;98361.00;;;;5056007;28;20090;-64
2023/06/18 08:13:40;;;;;;;8.23;7.20;;;;;26.10;98359.00;;;;5072630;28;20556;-63
2023/06/18 08:16:07;;;;;;;11.20;7.93;;;;;26.30;98364.00;;;;5072731;28;20094;-64
2023/06/18 08:18:34;;;;;;;9.32;7.22;;;;;26.30;98359.00;;;;5072324;28;20044;-63
2023/06/18 08:21:01;;;;;;;6.55;5.72;;;;;26.40;98351.00;;;;5072585;28;20047;-64
2023/06/18 08:23:28;;;;;;;8.13;6.13;;;;;26.50;98356.00;;;;5074317;28;20127;-63
2023/06/18 08:25:55;;;;;;;7.57;5.88;;;;;26.60;98355.00;;;;5073036;28;20127;-63
2023/06/18 08:28:21;;;;;;;10.68;6.15;;;;;26.60;98347.00;;;;5073062;28;20078;-64
2023/06/18 08:30:49;;;;;;;6.65;5.95;;;;;26.80;98355.00;;;;5092073;28;20071;-62
2023/06/18 08:33:16;;;;;;;7.35;6.57;;;;;26.80;98342.00;;;;5089107;28;20078;-64
2023/06/18 08:35:43;;;;;;;7.88;6.60;;;;;26.90;98341.00;;;;5082769;28;20045;-63
2023/06/18 08:38:09;;;;;;;16.00;11.45;;;;;27.00;98341.00;;;;5082818;28;20036;-64
2023/06/18 08:40:49;;;;;;;7.70;6.90;;;;;27.10;98339.00;;;;5065043;28;20091;-63
2023/06/18 08:43:21;;;;;;;8.85;6.55;;;;;27.30;98335.00;;;;5081589;28;20041;-63
2023/06/18 08:45:51;;;;;;;6.90;6.18;;;;;27.40;98331.00;;;;5081675;28;20491;-64
2023/06/18 08:48:23;;;;;;;6.45;5.40;;;;;27.40;98333.00;;;;5084421;28;20041;-64
2023/06/18 08:51:05;;;;;;;8.40;7.57;;;;;27.60;98324.00;;;;5085127;28;20079;-63
2023/06/18 08:54:01;;;;;;;7.93;6.68;;;;;27.70;98329.00;;;;5084257;28;20108;-64
2023/06/18 08:56:29;;;;;;;6.55;5.90;;;;;27.70;98331.00;;;;5084172;28;20052;-63
2023/06/18 08:58:57;;;;;;;6.50;5.78;;;;;27.80;98323.00;;;;5084340;28;20039;-63
2023/06/18 09:01:25;;;;;;;6.20;5.60;;;;;27.90;98323.00;;;;5079005;28;20375;-63
2023/06/18 09:03:56;;;;;;;5.55;5.05;;;;;27.90;98319.00;;;;5055282;28;20041;-62
2023/06/18 09:06:23;;;;;;;8.38;5.47;;;;;28.00;98318.00;;;;5071404;28;20127;-63
2023/06/18 09:08:49;;;;;;;6.47;5.18;;;;;28.10;98316.00;;;;5054485;28;20070;-62
2023/06/18 09:11:16;;;;;;;5.60;5.10;;;;;28.20;98311.00;;;;5071119;28;20052;-63
2023/06/18 09:13:44;;;;;;;6.25;5.38;;;;;28.20;98307.00;;;;5072355;28;20524;-62
2023/06/18 09:16:11;;;;;;;6.13;5.18;;;;;28.30;98314.00;;;;5072183;28;20444;-63
2023/06/18 09:18:38;;;;;;;5.80;5.28;;;;;28.40;98308.00;;;;5070912;28;20123;-62
2023/06/18 09:21:05;;;;;;;6.47;5.35;;;;;28.50;98309.00;;;;5070590;28;20147;-63
2023/06/18 09:23:32;;;;;;;5.88;5.28;;;;;28.60;98307.00;;;;5072133;28;20682;-63
2023/06/18 09:26:00;;;;;;;6.00;5.38;;;;;28.50;98302.00;;;;5072127;28;20142;-63
2023/06/18 09:28:28;;;;;;;6.10;5.05;;;;;28.70;98307.00;;;;5072046;28;20123;-63
2023/06/18 09:31:01;;;;;;;5.05;4.65;;;;;28.80;98306.00;;;;5070505;28;20094;-63
2023/06/18 09:33:33;;;;;;;5.65;5.15;;;;;28.90;98304.00;;;;5072150;28;20044;-63
2023/06/18 09:36:04;;;;;;;9.23;5.88;;;;;28.90;98300.00;;;;5072249;28;20044;-62
2023/06/18 09:38:41;;;;;;;6.55;5.88;;;;;28.90;98298.00;;;;5071868;28;20036;-63
2023/06/18 09:41:13;;;;;;;6.47;4.95;;;;;28.90;98300.00;;;;5071885;28;20044;-63
2023/06/18 09:43:43;;;;;;;9.32;4.93;;;;;28.90;98300.00;;;;5072227;28;20045;-63
2023/06/18 09:46:10;;;;;;;5.60;4.55;;;;;29.00;98304.00;;;;5072459;28;20102;-63
2023/06/18 09:48:44;;;;;;;5.30;4.85;;;;;28.90;98298.00;;;;5071720;28;20037;-62
2023/06/18 09:51:15;;;;;;;8.90;5.38;;;;;29.00;98296.00;;;;5070821;28;20525;-62
2023/06/18 09:53:43;;;;;;;6.75;5.18;;;;;29.20;98299.00;;;;5054513;28;20052;-63
2023/06/18 09:56:13;;;;;;;5.78;4.97;;;;;29.30;98300.00;;;;5053901;28;20074;-63
2023/06/18 09:58:45;;;;;;;8.70;6.00;;;;;29.30;98297.00;;;;5071834;28;20128;-65
2023/06/18 10:01:13;;;;;;;6.57;5.20;;;;;29.20;98296.00;;;;5070642;28;20076;-62
2023/06/18 10:03:41;;;;;;;7.10;5.10;;;;;29.20;98295.00;;;;5071752;28;20075;-63
2023/06/18 10:06:17;;;;;;;5.50;4.90;;;;;29.30;98298.00;;;;5054230;28;20072;-64
2023/06/18 10:08:46;;;;;;;6.35;5.75;;;;;29.40;98291.00;;;;5071590;28;20450;-65
2023/06/18 10:11:14;;;;;;;6.03;5.43;;;;;29.50;98302.00;;;;5071626;28;20512;-63
2023/06/18 10:13:45;;;;;;;5.57;4.70;;;;;29.50;98293.00;;;;5074464;28;20048;-63
2023/06/18 10:16:14;;;;;;;7.43;5.50;;;;;29.80;98291.00;;;;5076094;28;20110;-62
2023/06/18 10:19:02;;;;;;;5.35;4.95;;;;;29.90;98286.00;;;;5074859;28;20041;-61
2023/06/18 10:21:33;;;;;;;6.82;5.65;;;;;29.90;98285.00;;;;5076294;28;20045;-63
2023/06/18 10:24:12;;;;;;;22.00;19.67;;;;;30.10;98288.00;;;;5074780;28;20054;-63
2023/06/18 10:26:40;;;;;;;6.32;5.68;;;;;30.10;98285.00;;;;5058384;28;20076;-63
2023/06/18 10:29:09;;;;;;;5.45;4.97;;;;;30.20;98275.00;;;;5057989;28;20128;-62
2023/06/18 10:31:37;;;;;;;6.45;5.35;;;;;30.30;98283.00;;;;5074190;28;20528;-63
2023/06/18 10:34:04;;;;;;;6.93;5.32;;;;;30.40;98287.00;;;;5075203;28;20044;-63
2023/06/18 10:36:32;;;;;;;6.53;5.10;;;;;30.40;98284.00;;;;5057917;28;20076;-63
2023/06/18 10:38:59;;;;;;;5.65;4.63;;;;;30.50;98283.00;;;;5075027;28;20044;-62
2023/06/18 10:41:27;;;;;;;5.30;4.80;;;;;30.50;98275.00;;;;5075790;28;20124;-64
2023/06/18 10:43:55;;;;;;;6.32;4.85;;;;;30.50;98281.00;;;;5074002;28;20053;-63
2023/06/18 10:46:22;;;;;;;5.93;5.28;;;;;30.40;98271.00;;;;5076606;28;20040;-63
2023/06/18 10:49:17;;;;;;;5.65;5.00;;;;;30.50;98264.00;;;;5077095;28;20047;-63
2023/06/18 10:51:56;;;;;;;5.70;4.90;;;;;30.60;98268.00;;;;5074828;28;20047;-63
2023/06/18 10:54:27;;;;;;;5.03;4.53;;;;;30.70;98256.00;;;;5074424;28;20096;-63
2023/06/18 10:56:54;;;;;;;5.25;4.75;;;;;30.80;98260.00;;;;5074430;28;20060;-63
2023/06/18 10:59:45;;;;;;;5.82;5.30;;;;;30.70;98256.00;;;;5074685;28;20062;-63
2023/06/18 11:02:13;;;;;;;5.72;5.13;;;;;30.70;98247.00;;;;5074307;28;20215;-62
2023/06/18 11:04:41;;;;;;;6.13;5.18;;;;;30.80;98245.00;;;;5076270;28;20067;-63
2023/06/18 11:07:23;;;;;;;6.32;4.72;;;;;30.90;98239.00;;;;5074782;28;20519;-63
2023/06/18 11:09:52;;;;;;;;;;;;;30.90;98239.00;;;;5083169;28;20067;-63
2023/06/18 11:12:37;;;;;;;5.03;4.63;;;;;30.80;98239.00;;;;5079091;28;19920;-63
2023/06/18 11:15:18;;;;;;;8.10;5.00;;;;;30.80;98230.00;;;;5077478;28;20048;-61
2023/06/18 11:17:49;;;;;;;5.38;4.80;;;;;30.90;98231.00;;;;5076254;28;20044;-62
2023/06/18 11:20:18;;;;;;;7.22;5.00;;;;;31.00;98237.00;;;;5076170;28;20515;-62
2023/06/18 11:22:45;;;;;;;5.78;4.75;;;;;31.20;98230.00;;;;5073986;28;20504;-62
2023/06/18 11:25:13;;;;;;;5.15;4.75;;;;;31.10;98222.00;;;;5058168;28;20069;-63
2023/06/18 11:27:45;;;;;;;6.72;6.10;;;;;31.10;98222.00;;;;5075115;28;20040;-63
2023/06/18 11:30:17;;;;;;;6.38;5.63;;;;;31.20;98219.00;;;;5074977;28;20497;-64
2023/06/18 11:32:44;;;;;;;6.93;5.35;;;;;31.30;98219.00;;;;5057150;28;20056;-64
2023/06/18 11:35:12;;;;;;;5.38;4.75;;;;;31.50;98205.00;;;;5073544;28;20040;-62
2023/06/18 11:37:41;;;;;;;7.25;5.15;;;;;31.60;98204.00;;;;5056546;28;20055;-64
2023/06/18 11:40:08;;;;;;;5.45;4.85;;;;;31.70;98205.00;;;;5072665;28;20481;-63
2023/06/18 11:42:37;;;;;;;8.30;5.22;;;;;31.80;98201.00;;;;5056600;28;20045;-62
2023/06/18 11:45:05;;;;;;;5.90;5.15;;;;;31.90;98200.00;;;;5072955;28;20110;-63
2023/06/18 11:47:34;;;;;;;5.78;5.00;;;;;32.00;98201.00;;;;5056029;28;20168;-62
2023/06/18 11:50:01;;;;;;;5.32;4.80;;;;;32.20;98197.00;;;;5056120;28;20047;-62
2023/06/18 11:52:29;;;;;;;5.43;5.03;;;;;32.30;98192.00;;;;5074098;28;20044;-62
2023/06/18 11:55:05;;;;;;;4.53;4.22;;;;;32.30;98189.00;;;;5074190;28;20402;-62
2023/06/18 11:57:32;;;;;;;5.28;4.88;;;;;32.40;98189.00;;;;5074504;28;20052;-62
2023/06/18 11:59:59;;;;;;;5.13;4.68;;;;;32.30;98183.00;;;;5075053;28;20043;-61
2023/06/18 12:02:27;;;;;;;5.80;5.30;;;;;32.40;98192.00;;;;5056607;28;20071;-62
2023/06/18 12:05:00;;;;;;;5.30;4.88;;;;;32.30;98183.00;;;;5072666;28;20493;-63
2023/06/18 12:07:27;;;;;;;6.88;4.90;;;;;32.10;98178.00;;;;5073533;28;20394;-63
2023/06/18 12:09:58;;;;;;;7.45;6.63;;;;;31.90;98149.00;;;;5055865;28;20044;-62
2023/06/18 12:12:49;;;;;;;5.65;5.15;;;;;32.00;98180.00;;;;5072145;28;20052;-62
2023/06/18 12:15:24;;;;;;;7.15;6.07;;;;;32.20;98180.00;;;;5073301;28;20052;-62
2023/06/18 12:18:02;;;;;;;6.93;5.20;;;;;32.20;98185.00;;;;5073156;28;20048;-62
2023/06/18 12:20:30;;;;;;;6.18;5.50;;;;;32.30;98177.00;;;;5071659;28;20524;-63
2023/06/18 12:22:59;;;;;;;7.15;6.45;;;;;32.50;98172.00;;;;5071625;28;20588;-63